createdAt,value
2023-02-20T00:00:32.224Z,49.77
2023-02-20T00:01:36.337Z,49.88
2023-02-20T00:02:40.624Z,49.84
2023-02-20T00:03:44.925Z,49.8
2023-02-20T00:04:49.024Z,49.93
2023-02-20T00:05:53.110Z,49.96
2023-02-20T00:06:57.229Z,49.98
2023-02-20T00:08:01.328Z,49.72
2023-02-20T00:09:05.420Z,49.77
2023-02-20T00:10:09.531Z,49.83
2023-02-20T00:11:13.664Z,49.78
2023-02-20T00:12:17.848Z,49.89
2023-02-20T00:13:21.947Z,49.86
2023-02-20T00:14:26.152Z,49.88
2023-02-20T00:15:30.403Z,49.97
2023-02-20T00:16:34.530Z,49.96
2023-02-20T00:17:38.647Z,49.93
2023-02-20T00:18:42.774Z,49.97
2023-02-20T00:19:46.868Z,50.01
2023-02-20T00:20:50.950Z,49.99
2023-02-20T00:21:55.042Z,50.02
2023-02-20T00:22:59.149Z,50.1
2023-02-20T00:24:03.289Z,50.06
2023-02-20T00:25:07.384Z,50.06
2023-02-20T00:26:13.073Z,50.01
2023-02-20T00:27:17.431Z,50.01
2023-02-20T00:28:21.573Z,50.09
2023-02-20T00:29:25.654Z,50.11
2023-02-20T00:30:29.952Z,50.04
2023-02-20T00:31:34.088Z,50.04
2023-02-20T00:32:38.169Z,50.02
2023-02-20T00:33:42.277Z,49.96
2023-02-20T00:34:46.382Z,50
2023-02-20T00:35:50.466Z,49.92
2023-02-20T00:36:54.545Z,49.99
2023-02-20T00:37:58.636Z,49.91
2023-02-20T00:39:02.802Z,50.02
2023-02-20T00:40:06.998Z,49.94
2023-02-20T00:41:11.091Z,49.95
2023-02-20T00:42:15.199Z,49.89
2023-02-20T00:43:19.594Z,49.89
2023-02-20T00:44:23.701Z,49.95
2023-02-20T00:45:27.790Z,49.95
2023-02-20T00:46:31.973Z,49.95
2023-02-20T00:47:36.082Z,49.97
2023-02-20T00:48:40.198Z,49.96
2023-02-20T00:49:44.502Z,49.98
2023-02-20T00:50:48.599Z,49.99
2023-02-20T00:51:52.712Z,49.97
2023-02-20T00:52:56.807Z,49.95
2023-02-20T00:54:00.893Z,49.89
2023-02-20T00:55:05.009Z,49.92
2023-02-20T00:56:09.476Z,49.98
2023-02-20T00:57:13.663Z,50.02
2023-02-20T00:58:17.746Z,50.03
2023-02-20T00:59:21.832Z,50
2023-02-20T01:00:25.965Z,50.04
2023-02-20T01:01:30.290Z,49.98
2023-02-20T01:02:34.506Z,50.03
2023-02-20T01:03:38.621Z,50.05
2023-02-20T01:04:42.696Z,50.04
2023-02-20T01:05:46.814Z,50.09
2023-02-20T01:06:50.965Z,50.11
2023-02-20T01:07:55.062Z,50.08
2023-02-20T01:08:59.205Z,50.03
2023-02-20T01:10:03.301Z,50.04
2023-02-20T01:11:07.399Z,50
2023-02-20T01:12:11.509Z,50.04
2023-02-20T01:13:15.616Z,50.03
2023-02-20T01:14:19.716Z,50
2023-02-20T01:15:23.922Z,50
2023-02-20T01:16:28.620Z,49.97
2023-02-20T01:17:33.041Z,49.96
2023-02-20T01:18:37.142Z,50
2023-02-20T01:19:41.258Z,49.95
2023-02-20T01:20:45.431Z,49.95
2023-02-20T01:21:49.548Z,49.98
2023-02-20T01:22:53.664Z,49.95
2023-02-20T01:23:57.768Z,49.99
2023-02-20T01:25:01.885Z,49.98
2023-02-20T01:26:06.004Z,50.03
2023-02-20T01:27:10.101Z,49.97
2023-02-20T01:28:14.247Z,50.01
2023-02-20T01:29:18.354Z,50.02
2023-02-20T01:30:22.547Z,49.92
2023-02-20T01:31:26.989Z,49.98
2023-02-20T01:32:31.149Z,49.96
2023-02-20T01:33:35.289Z,49.96
2023-02-20T01:34:39.397Z,49.96
2023-02-20T01:35:43.514Z,49.94
2023-02-20T01:36:47.638Z,49.92
2023-02-20T01:37:51.719Z,49.96
2023-02-20T01:38:55.857Z,49.94
2023-02-20T01:40:00.001Z,49.93
2023-02-20T01:41:04.100Z,49.93
2023-02-20T01:42:08.192Z,49.97
2023-02-20T01:43:12.296Z,49.95
2023-02-20T01:44:16.399Z,49.92
2023-02-20T01:45:20.503Z,49.91
2023-02-20T01:46:24.694Z,49.94
2023-02-20T01:47:29.039Z,49.86
2023-02-20T01:48:33.125Z,49.95
2023-02-20T01:49:37.244Z,49.95
2023-02-20T01:50:41.344Z,49.99
2023-02-20T01:51:45.457Z,49.98
2023-02-20T01:52:49.530Z,49.93
2023-02-20T01:53:53.608Z,49.93
2023-02-20T01:54:57.787Z,49.91
2023-02-20T01:56:01.932Z,49.93
2023-02-20T01:57:06.040Z,49.95
2023-02-20T01:58:10.159Z,49.88
2023-02-20T01:59:14.306Z,49.97
2023-02-20T02:00:18.430Z,49.94
2023-02-20T02:01:22.572Z,49.91
2023-02-20T02:02:26.699Z,49.91
2023-02-20T02:03:30.809Z,49.93
2023-02-20T02:04:34.910Z,49.89
2023-02-20T02:05:39.019Z,49.94
2023-02-20T02:06:43.131Z,49.89
2023-02-20T02:07:47.590Z,49.92
2023-02-20T02:08:51.701Z,50.02
2023-02-20T02:09:55.810Z,50.12
2023-02-20T02:10:59.909Z,50
2023-02-20T02:12:04.010Z,50.03
2023-02-20T02:13:08.123Z,49.91
2023-02-20T02:14:12.201Z,49.87
2023-02-20T02:15:16.305Z,49.82
2023-02-20T02:16:20.614Z,49.9
2023-02-20T02:17:24.776Z,49.86
2023-02-20T02:18:28.880Z,49.92
2023-02-20T02:19:32.969Z,49.9
2023-02-20T02:20:37.071Z,49.93
2023-02-20T02:21:41.194Z,49.88
2023-02-20T02:22:45.296Z,49.85
2023-02-20T02:23:49.405Z,49.84
2023-02-20T02:24:53.492Z,49.85
2023-02-20T02:25:57.614Z,49.76
2023-02-20T02:27:01.735Z,49.79
2023-02-20T02:28:05.860Z,49.8
2023-02-20T02:29:09.955Z,49.83
2023-02-20T02:30:14.156Z,49.85
2023-02-20T02:31:18.565Z,49.88
2023-02-20T02:32:22.744Z,49.87
2023-02-20T02:33:26.843Z,49.87
2023-02-20T02:34:30.917Z,49.79
2023-02-20T02:35:35.030Z,49.87
2023-02-20T02:36:39.135Z,49.85
2023-02-20T02:37:43.480Z,49.93
2023-02-20T02:38:47.604Z,49.84
2023-02-20T02:39:51.722Z,49.88
2023-02-20T02:40:55.826Z,49.85
2023-02-20T02:41:59.923Z,49.91
2023-02-20T02:43:04.053Z,49.82
2023-02-20T02:44:08.172Z,49.94
2023-02-20T02:45:12.256Z,49.88
2023-02-20T02:46:16.670Z,49.88
2023-02-20T02:47:20.763Z,49.95
2023-02-20T02:48:24.982Z,49.95
2023-02-20T02:49:29.098Z,49.9
2023-02-20T02:50:33.267Z,49.85
2023-02-20T02:51:37.411Z,49.93
2023-02-20T02:52:41.481Z,50.08
2023-02-20T02:53:45.702Z,49.99
2023-02-20T02:54:49.843Z,49.93
2023-02-20T02:55:53.940Z,49.95
2023-02-20T02:56:58.043Z,49.94
2023-02-20T02:58:02.148Z,49.95
2023-02-20T02:59:06.271Z,50
2023-02-20T03:00:10.378Z,50.07
2023-02-20T03:01:14.643Z,50.01
2023-02-20T03:02:18.835Z,49.97
2023-02-20T03:03:22.996Z,49.92
2023-02-20T03:04:27.101Z,50.01
2023-02-20T03:05:31.175Z,49.98
2023-02-20T03:06:35.253Z,49.84
2023-02-20T03:07:39.337Z,50.03
2023-02-20T03:08:43.445Z,50.04
2023-02-20T03:09:47.554Z,49.92
2023-02-20T03:10:51.641Z,49.75
2023-02-20T03:11:55.756Z,49.64
2023-02-20T03:12:59.869Z,49.6
2023-02-20T03:14:03.963Z,49.6
2023-02-20T03:15:08.061Z,49.56
2023-02-20T03:16:13.528Z,49.5
2023-02-20T03:17:17.772Z,49.43
2023-02-20T03:18:21.878Z,49.36
2023-02-20T03:19:25.988Z,49.29
2023-02-20T03:20:30.112Z,49.2
2023-02-20T03:21:34.527Z,49.14
2023-02-20T03:22:38.720Z,49.09
2023-02-20T03:23:42.837Z,49.06
2023-02-20T03:24:46.947Z,49.04
2023-02-20T03:25:51.045Z,48.96
2023-02-20T03:26:55.162Z,48.96
2023-02-20T03:27:59.260Z,48.9
2023-02-20T03:29:03.340Z,48.85
2023-02-20T03:30:07.583Z,48.78
2023-02-20T03:31:11.802Z,48.76
2023-02-20T03:32:16.121Z,48.73
2023-02-20T03:33:20.235Z,48.7
2023-02-20T03:34:24.320Z,48.66
2023-02-20T03:35:28.511Z,48.63
2023-02-20T03:36:32.592Z,48.59
2023-02-20T03:37:36.703Z,48.52
2023-02-20T03:38:40.806Z,48.46
2023-02-20T03:39:44.897Z,48.46
2023-02-20T03:40:49.003Z,48.42
2023-02-20T03:41:53.087Z,48.38
2023-02-20T03:42:57.191Z,48.38
2023-02-20T03:44:01.269Z,48.31
2023-02-20T03:45:05.374Z,48.24
2023-02-20T03:46:09.825Z,48.18
2023-02-20T03:47:13.952Z,48.15
2023-02-20T03:48:18.050Z,48.08
2023-02-20T03:49:22.159Z,48.03
2023-02-20T03:50:26.266Z,48.01
2023-02-20T03:51:30.355Z,47.92
2023-02-20T03:52:34.460Z,47.91
2023-02-20T03:53:38.567Z,47.83
2023-02-20T03:54:42.642Z,47.77
2023-02-20T03:55:46.746Z,47.76
2023-02-20T03:56:50.845Z,47.75
2023-02-20T03:57:54.967Z,47.73
2023-02-20T03:58:59.059Z,47.66
2023-02-20T04:00:03.169Z,47.62
2023-02-20T04:01:07.529Z,47.59
2023-02-20T04:02:11.781Z,47.58
2023-02-20T04:03:15.875Z,47.55
2023-02-20T04:04:19.973Z,47.46
2023-02-20T04:05:24.084Z,47.39
2023-02-20T04:06:28.204Z,47.37
2023-02-20T04:07:32.351Z,47.26
2023-02-20T04:08:36.495Z,47.26
2023-02-20T04:09:40.583Z,47.25
2023-02-20T04:10:44.732Z,47.21
2023-02-20T04:11:48.837Z,47.23
2023-02-20T04:12:52.939Z,47.24
2023-02-20T04:13:57.114Z,47.24
2023-02-20T04:15:01.215Z,47.2
2023-02-20T04:16:05.302Z,47.14
2023-02-20T04:17:09.408Z,47.13
2023-02-20T04:18:13.519Z,47.14
2023-02-20T04:19:17.691Z,47.14
2023-02-20T04:20:21.798Z,47.17
2023-02-20T04:21:25.896Z,47.22
2023-02-20T04:22:30.091Z,47.27
2023-02-20T04:23:34.204Z,47.32
2023-02-20T04:24:38.309Z,47.37
2023-02-20T04:25:42.416Z,47.43
2023-02-20T04:26:46.508Z,47.48
2023-02-20T04:27:50.626Z,47.52
2023-02-20T04:28:54.745Z,47.62
2023-02-20T04:29:58.820Z,47.62
2023-02-20T04:31:03.049Z,47.69
2023-02-20T04:32:07.304Z,47.69
2023-02-20T04:33:11.427Z,47.69
2023-02-20T04:34:15.507Z,47.67
2023-02-20T04:35:19.595Z,47.63
2023-02-20T04:36:23.717Z,47.58
2023-02-20T04:37:27.827Z,47.54
2023-02-20T04:38:31.935Z,47.51
2023-02-20T04:39:36.064Z,47.38
2023-02-20T04:40:40.160Z,47.37
2023-02-20T04:41:44.250Z,47.27
2023-02-20T04:42:48.387Z,47.16
2023-02-20T04:43:52.492Z,47.19
2023-02-20T04:44:56.599Z,47.11
2023-02-20T04:46:00.860Z,47.09
2023-02-20T04:47:05.000Z,47.13
2023-02-20T04:48:09.084Z,47.17
2023-02-20T04:49:13.203Z,47.22
2023-02-20T04:50:17.291Z,47.21
2023-02-20T04:51:21.403Z,47.27
2023-02-20T04:52:25.510Z,47.27
2023-02-20T04:53:29.600Z,47.26
2023-02-20T04:54:33.732Z,47.35
2023-02-20T04:55:37.819Z,47.5
2023-02-20T04:56:41.954Z,47.45
2023-02-20T04:57:46.352Z,47.16
2023-02-20T04:58:50.442Z,46.97
2023-02-20T04:59:54.551Z,46.97
2023-02-20T05:00:58.765Z,46.97
2023-02-20T05:02:02.942Z,46.85
2023-02-20T05:03:07.042Z,46.78
2023-02-20T05:04:11.165Z,46.71
2023-02-20T05:05:15.279Z,46.61
2023-02-20T05:06:19.406Z,46.55
2023-02-20T05:07:23.515Z,46.52
2023-02-20T05:08:27.627Z,46.38
2023-02-20T05:09:31.750Z,46.36
2023-02-20T05:10:35.881Z,46.38
2023-02-20T05:11:40.055Z,46.39
2023-02-20T05:12:44.161Z,46.33
2023-02-20T05:13:48.328Z,46.23
2023-02-20T05:14:52.936Z,46.2
2023-02-20T05:15:58.106Z,46.21
2023-02-20T05:17:02.256Z,46.18
2023-02-20T05:18:06.358Z,46.17
2023-02-20T05:19:10.526Z,46.12
2023-02-20T05:20:14.649Z,46.16
2023-02-20T05:21:18.779Z,46.19
2023-02-20T05:22:22.903Z,46.2
2023-02-20T05:23:27.017Z,46.2
2023-02-20T05:24:31.102Z,46.07
2023-02-20T05:25:35.215Z,46.41
2023-02-20T05:26:39.372Z,46.51
2023-02-20T05:27:43.518Z,46.52
2023-02-20T05:28:47.602Z,46.47
2023-02-20T05:29:51.708Z,46.35
2023-02-20T05:30:55.942Z,46.23
2023-02-20T05:32:00.291Z,46.12
2023-02-20T05:33:04.433Z,45.96
2023-02-20T05:34:08.538Z,45.88
2023-02-20T05:35:12.640Z,45.81
2023-02-20T05:36:16.874Z,45.7
2023-02-20T05:37:20.980Z,45.66
2023-02-20T05:38:25.089Z,45.58
2023-02-20T05:39:29.187Z,45.57
2023-02-20T05:40:33.307Z,45.51
2023-02-20T05:41:37.417Z,45.49
2023-02-20T05:42:41.538Z,45.48
2023-02-20T05:43:45.656Z,45.45
2023-02-20T05:44:49.739Z,45.38
2023-02-20T05:45:53.857Z,45.29
2023-02-20T05:46:57.987Z,45.18
2023-02-20T05:48:02.096Z,45.18
2023-02-20T05:49:06.180Z,45.2
2023-02-20T05:50:10.292Z,45.33
2023-02-20T05:51:14.372Z,45.51
2023-02-20T05:52:18.490Z,45.63
2023-02-20T05:53:22.623Z,45.71
2023-02-20T05:54:26.721Z,45.77
2023-02-20T05:55:30.848Z,45.81
2023-02-20T05:56:35.285Z,45.89
2023-02-20T05:57:39.403Z,46
2023-02-20T05:58:43.523Z,46.09
2023-02-20T05:59:47.804Z,46.32
2023-02-20T06:00:51.918Z,46.38
2023-02-20T06:01:56.029Z,46.47
2023-02-20T06:03:00.152Z,46.5
2023-02-20T06:04:04.645Z,46.63
2023-02-20T06:05:08.825Z,46.67
2023-02-20T06:06:13.912Z,46.74
2023-02-20T06:07:18.162Z,46.79
2023-02-20T06:08:22.289Z,46.9
2023-02-20T06:09:26.462Z,47
2023-02-20T06:10:30.570Z,47.06
2023-02-20T06:11:34.661Z,47.09
2023-02-20T06:12:38.748Z,47.05
2023-02-20T06:13:42.840Z,47.08
2023-02-20T06:14:47.510Z,46.96
2023-02-20T06:15:52.013Z,46.82
2023-02-20T06:16:56.142Z,46.63
2023-02-20T06:18:00.248Z,46.46
2023-02-20T06:19:04.381Z,46.45
2023-02-20T06:20:08.527Z,46.23
2023-02-20T06:21:12.681Z,46.31
2023-02-20T06:22:16.785Z,46.17
2023-02-20T06:23:20.898Z,46.15
2023-02-20T06:24:25.029Z,46.11
2023-02-20T06:25:29.176Z,46.09
2023-02-20T06:26:33.278Z,45.96
2023-02-20T06:27:37.386Z,45.98
2023-02-20T06:28:41.473Z,45.93
2023-02-20T06:29:45.548Z,45.86
2023-02-20T06:30:49.653Z,45.84
2023-02-20T06:31:54.313Z,45.76
2023-02-20T06:32:58.491Z,45.78
2023-02-20T06:34:02.603Z,45.69
2023-02-20T06:35:06.701Z,45.65
2023-02-20T06:36:11.253Z,45.56
2023-02-20T06:37:15.531Z,45.45
2023-02-20T06:38:19.617Z,45.61
2023-02-20T06:39:23.724Z,45.55
2023-02-20T06:40:27.827Z,45.43
2023-02-20T06:41:31.953Z,45.26
2023-02-20T06:42:36.037Z,45.19
2023-02-20T06:43:40.135Z,44.97
2023-02-20T06:44:44.230Z,44.9
2023-02-20T06:45:48.315Z,44.76
2023-02-20T06:46:52.622Z,44.78
2023-02-20T06:47:56.761Z,44.47
2023-02-20T06:49:00.863Z,44.69
2023-02-20T06:50:04.974Z,44.49
2023-02-20T06:51:09.059Z,44.61
2023-02-20T06:52:13.188Z,44.8
2023-02-20T06:53:17.277Z,44.68
2023-02-20T06:54:21.610Z,44.64
2023-02-20T06:55:25.686Z,44.79
2023-02-20T06:56:29.829Z,44.81
2023-02-20T06:57:33.928Z,44.73
2023-02-20T06:58:38.035Z,44.71
2023-02-20T06:59:42.137Z,44.77
2023-02-20T07:00:46.320Z,44.62
2023-02-20T07:01:50.623Z,44.61
2023-02-20T07:02:54.792Z,44.71
2023-02-20T07:03:58.928Z,44.74
2023-02-20T07:05:03.104Z,44.77
2023-02-20T07:06:07.302Z,44.65
2023-02-20T07:07:11.416Z,44.58
2023-02-20T07:08:15.614Z,44.67
2023-02-20T07:09:19.714Z,44.67
2023-02-20T07:10:23.806Z,44.71
2023-02-20T07:11:27.909Z,44.79
2023-02-20T07:12:32.066Z,44.88
2023-02-20T07:13:36.185Z,44.9
2023-02-20T07:14:40.308Z,44.77
2023-02-20T07:15:44.514Z,44.63
2023-02-20T07:16:48.598Z,44.75
2023-02-20T07:17:52.669Z,44.74
2023-02-20T07:18:56.768Z,44.64
2023-02-20T07:20:00.865Z,44.8
2023-02-20T07:21:04.968Z,44.79
2023-02-20T07:22:09.180Z,44.46
2023-02-20T07:23:13.307Z,44.57
2023-02-20T07:24:17.416Z,44.78
2023-02-20T07:25:21.561Z,44.65
2023-02-20T07:26:25.659Z,44.58
2023-02-20T07:27:29.774Z,44.45
2023-02-20T07:28:33.871Z,44.55
2023-02-20T07:29:37.974Z,44.37
2023-02-20T07:30:42.392Z,44.31
2023-02-20T07:31:46.791Z,44.42
2023-02-20T07:32:50.915Z,44.45
2023-02-20T07:33:55.006Z,44.52
2023-02-20T07:35:10.072Z,44.43
2023-02-20T07:36:15.290Z,44.62
2023-02-20T07:37:19.427Z,44.57
2023-02-20T07:38:23.517Z,44.4
2023-02-20T07:39:27.616Z,44.27
2023-02-20T07:40:31.740Z,44.38
2023-02-20T07:41:35.958Z,44.26
2023-02-20T07:42:40.234Z,44.11
2023-02-20T07:43:44.333Z,44.25
2023-02-20T07:44:48.496Z,44.44
2023-02-20T07:45:52.792Z,44.57
2023-02-20T07:46:56.898Z,44.5
2023-02-20T07:48:01.033Z,44.37
2023-02-20T07:49:05.178Z,44.61
2023-02-20T07:50:09.332Z,44.34
2023-02-20T07:51:13.453Z,44.44
2023-02-20T07:52:17.669Z,44.62
2023-02-20T07:53:21.755Z,44.53
2023-02-20T07:54:25.881Z,44.39
2023-02-20T07:55:29.974Z,44.53
2023-02-20T07:56:34.111Z,44.48
2023-02-20T07:57:38.220Z,44.46
2023-02-20T07:58:42.316Z,44.4
2023-02-20T07:59:46.633Z,44.3
2023-02-20T08:00:50.878Z,44.09
2023-02-20T08:01:55.227Z,44.15
2023-02-20T08:02:59.353Z,44.18
2023-02-20T08:04:03.447Z,44.04
2023-02-20T08:05:07.718Z,44.17
2023-02-20T08:06:12.624Z,44.08
2023-02-20T08:07:16.885Z,44.21
2023-02-20T08:08:20.997Z,44.12
2023-02-20T08:09:25.078Z,44.23
2023-02-20T08:10:29.362Z,44.13
2023-02-20T08:11:33.467Z,44.11
2023-02-20T08:12:37.621Z,44.14
2023-02-20T08:13:41.751Z,44.34
2023-02-20T08:14:45.880Z,44.11
2023-02-20T08:15:50.096Z,44.2
2023-02-20T08:16:54.242Z,44.19
2023-02-20T08:17:58.369Z,44.17
2023-02-20T08:19:02.658Z,44.01
2023-02-20T08:20:07.108Z,43.93
2023-02-20T08:21:11.296Z,44.08
2023-02-20T08:22:15.370Z,44.08
2023-02-20T08:23:19.518Z,44.07
2023-02-20T08:24:23.628Z,43.88
2023-02-20T08:25:27.750Z,43.79
2023-02-20T08:26:31.881Z,43.89
2023-02-20T08:27:35.980Z,43.99
2023-02-20T08:28:40.248Z,44.01
2023-02-20T08:29:44.373Z,43.95
2023-02-20T08:30:48.499Z,43.84
2023-02-20T08:31:52.890Z,43.89
2023-02-20T08:32:57.713Z,43.87
2023-02-20T08:34:01.992Z,43.84
2023-02-20T08:35:06.108Z,43.9
2023-02-20T08:36:10.582Z,43.9
2023-02-20T08:37:14.838Z,43.87
2023-02-20T08:38:18.924Z,43.9
2023-02-20T08:39:23.044Z,43.9
2023-02-20T08:40:27.375Z,43.83
2023-02-20T08:41:32.401Z,43.81
2023-02-20T08:42:36.571Z,43.95
2023-02-20T08:43:40.712Z,43.79
2023-02-20T08:44:44.877Z,43.75
2023-02-20T08:45:49.167Z,43.84
2023-02-20T08:46:53.306Z,43.69
2023-02-20T08:47:57.387Z,43.7
2023-02-20T08:49:01.495Z,43.64
2023-02-20T08:50:05.658Z,43.72
2023-02-20T08:51:09.752Z,43.67
2023-02-20T08:52:13.863Z,43.58
2023-02-20T08:53:18.009Z,43.79
2023-02-20T08:54:22.122Z,43.7
2023-02-20T08:55:26.214Z,43.71
2023-02-20T08:56:30.361Z,43.58
2023-02-20T08:57:34.484Z,43.43
2023-02-20T08:58:38.591Z,43.31
2023-02-20T08:59:42.704Z,43.57
2023-02-20T09:00:47.030Z,43.66
2023-02-20T09:01:51.309Z,43.25
2023-02-20T09:02:55.533Z,43.58
2023-02-20T09:03:59.667Z,43.52
2023-02-20T09:05:03.769Z,43.59
2023-02-20T09:06:07.872Z,43.56
2023-02-20T09:07:12.061Z,43.58
2023-02-20T09:08:16.325Z,43.51
2023-02-20T09:09:20.884Z,43.44
2023-02-20T09:10:25.197Z,43.5
2023-02-20T09:11:29.527Z,43.54
2023-02-20T09:12:33.743Z,43.56
2023-02-20T09:13:37.838Z,43.43
2023-02-20T09:14:41.946Z,43.56
2023-02-20T09:15:46.030Z,43.72
2023-02-20T09:16:50.346Z,43.54
2023-02-20T09:17:54.464Z,43.49
2023-02-20T09:18:59.655Z,43.38
2023-02-20T09:20:03.772Z,43.72
2023-02-20T09:21:07.880Z,43.49
2023-02-20T09:22:12.005Z,43.5
2023-02-20T09:23:16.194Z,43.35
2023-02-20T09:24:20.341Z,43.25
2023-02-20T09:25:24.471Z,43.33
2023-02-20T09:26:28.649Z,43.55
2023-02-20T09:27:32.793Z,43.49
2023-02-20T09:28:36.924Z,43.39
2023-02-20T09:29:41.148Z,43.61
2023-02-20T09:30:45.304Z,43.55
2023-02-20T09:31:49.921Z,43.41
2023-02-20T09:32:54.121Z,43.51
2023-02-20T09:33:58.254Z,43.5
2023-02-20T09:35:02.354Z,43.29
2023-02-20T09:36:06.492Z,43.02
2023-02-20T09:37:10.627Z,43.21
2023-02-20T09:38:14.745Z,43.19
2023-02-20T09:39:19.016Z,43.22
2023-02-20T09:40:23.127Z,43.58
2023-02-20T09:41:27.233Z,43.54
2023-02-20T09:42:31.349Z,43.4
2023-02-20T09:43:35.485Z,43.51
2023-02-20T09:44:39.615Z,43.59
2023-02-20T09:45:43.859Z,43.51
2023-02-20T09:46:48.045Z,43.53
2023-02-20T09:47:52.143Z,43.53
2023-02-20T09:48:56.492Z,43.48
2023-02-20T09:50:00.592Z,43.45
2023-02-20T09:51:04.766Z,43.5
2023-02-20T09:52:08.872Z,43.34
2023-02-20T09:53:12.995Z,43.25
2023-02-20T09:54:17.107Z,43.38
2023-02-20T09:55:21.216Z,43.41
2023-02-20T09:56:25.321Z,43.39
2023-02-20T09:57:29.477Z,43.37
2023-02-20T09:58:33.585Z,43.35
2023-02-20T09:59:37.693Z,43.38
2023-02-20T10:00:41.793Z,43.38
2023-02-20T10:01:45.885Z,43.38
2023-02-20T10:02:50.529Z,43.41
2023-02-20T10:03:54.764Z,43.41
2023-02-20T10:05:03.717Z,43.53
2023-02-20T10:06:07.824Z,43.31
2023-02-20T10:07:11.949Z,43.42
2023-02-20T10:08:16.085Z,43.74
2023-02-20T10:09:20.358Z,43.34
2023-02-20T10:10:24.689Z,43.28
2023-02-20T10:11:28.834Z,43.53
2023-02-20T10:12:32.932Z,43.17
2023-02-20T10:13:37.055Z,43.24
2023-02-20T10:14:41.176Z,43.08
2023-02-20T10:15:45.271Z,43.27
2023-02-20T10:16:49.448Z,43.36
2023-02-20T10:17:53.555Z,43.43
2023-02-20T10:18:57.819Z,43.63
2023-02-20T10:20:02.153Z,43.28
2023-02-20T10:21:06.257Z,43.21
2023-02-20T10:22:10.380Z,43.23
2023-02-20T10:23:14.491Z,43.37
2023-02-20T10:24:18.597Z,43.45
2023-02-20T10:25:22.805Z,43.3
2023-02-20T10:26:27.004Z,43.26
2023-02-20T10:27:31.113Z,43.37
2023-02-20T10:28:35.294Z,43.36
2023-02-20T10:29:39.397Z,43.39
2023-02-20T10:30:43.936Z,43.56
2023-02-20T10:31:48.513Z,43.12
2023-02-20T10:32:52.758Z,43.18
2023-02-20T10:33:56.878Z,43.42
2023-02-20T10:35:00.984Z,43.67
2023-02-20T10:36:05.096Z,43.32
2023-02-20T10:37:09.261Z,43.05
2023-02-20T10:38:13.425Z,42.99
2023-02-20T10:39:17.650Z,42.82
2023-02-20T10:40:22.133Z,42.71
2023-02-20T10:41:26.341Z,42.67
2023-02-20T10:42:30.455Z,42.59
2023-02-20T10:43:34.564Z,42.55
2023-02-20T10:44:53.813Z,42.47
2023-02-20T10:45:58.001Z,42.54
2023-02-20T10:47:02.401Z,42.5
2023-02-20T10:48:06.584Z,42.46
2023-02-20T10:49:10.736Z,42.47
2023-02-20T10:50:14.893Z,42.4
2023-02-20T10:51:19.012Z,42.33
2023-02-20T10:52:35.848Z,42.31
2023-02-20T10:53:39.977Z,42.26
2023-02-20T10:54:44.113Z,42.25
2023-02-20T10:55:48.221Z,42.13
2023-02-20T10:56:52.324Z,42.16
2023-02-20T10:57:56.450Z,42.15
2023-02-20T10:59:00.581Z,42.14
2023-02-20T11:00:04.678Z,42.11
2023-02-20T11:01:09.218Z,42.1
2023-02-20T11:02:13.668Z,42.19
2023-02-20T11:03:17.792Z,42.19
2023-02-20T11:04:22.048Z,42.2
2023-02-20T11:05:26.168Z,42.2
2023-02-20T11:06:30.252Z,42.18
2023-02-20T11:07:34.360Z,42.17
2023-02-20T11:08:38.486Z,42.25
2023-02-20T11:09:42.618Z,42.2
2023-02-20T11:10:46.711Z,42.11
2023-02-20T11:11:50.837Z,42.12
2023-02-20T11:12:54.988Z,42.07
2023-02-20T11:13:59.083Z,42.2
2023-02-20T11:15:03.256Z,42.21
2023-02-20T11:16:07.621Z,42.27
2023-02-20T11:17:11.756Z,42.29
2023-02-20T11:18:16.023Z,42.13
2023-02-20T11:19:20.183Z,42.03
2023-02-20T11:20:24.313Z,42.1
2023-02-20T11:21:28.409Z,42.03
2023-02-20T11:22:32.541Z,41.96
2023-02-20T11:23:36.655Z,41.92
2023-02-20T11:24:40.855Z,41.86
2023-02-20T11:25:45.020Z,41.81
2023-02-20T11:26:49.173Z,41.73
2023-02-20T11:27:53.314Z,41.68
2023-02-20T11:28:57.463Z,41.68
2023-02-20T11:30:01.709Z,41.7
2023-02-20T11:31:06.105Z,41.67
2023-02-20T11:32:10.465Z,41.69
2023-02-20T11:33:14.626Z,41.62
2023-02-20T11:34:18.760Z,41.71
2023-02-20T11:35:22.847Z,41.73
2023-02-20T11:36:26.962Z,41.78
2023-02-20T11:37:31.077Z,41.83
2023-02-20T11:38:35.243Z,41.87
2023-02-20T11:39:39.337Z,41.85
2023-02-20T11:40:43.423Z,41.91
2023-02-20T11:41:47.543Z,41.94
2023-02-20T11:42:51.779Z,41.91
2023-02-20T11:44:03.362Z,41.91
2023-02-20T11:45:07.452Z,41.9
2023-02-20T11:46:12.351Z,41.78
2023-02-20T11:47:16.571Z,41.72
2023-02-20T11:48:20.703Z,41.64
2023-02-20T11:49:24.826Z,41.59
2023-02-20T11:50:28.940Z,41.5
2023-02-20T11:51:33.050Z,41.57
2023-02-20T11:52:37.147Z,41.51
2023-02-20T11:53:41.260Z,41.49
2023-02-20T11:54:45.346Z,41.49
2023-02-20T11:56:01.601Z,41.51
2023-02-20T11:57:05.686Z,41.52
2023-02-20T11:58:09.832Z,41.58
2023-02-20T11:59:13.984Z,41.6
2023-02-20T12:00:18.163Z,41.66
2023-02-20T12:01:22.260Z,41.68
2023-02-20T12:02:26.500Z,41.69
2023-02-20T12:03:30.620Z,41.7
2023-02-20T12:04:34.701Z,41.73
2023-02-20T12:05:38.941Z,41.72
2023-02-20T12:06:43.092Z,41.74
2023-02-20T12:07:47.209Z,41.71
2023-02-20T12:08:51.338Z,41.72
2023-02-20T12:09:55.487Z,41.75
2023-02-20T12:10:59.601Z,41.73
2023-02-20T12:12:03.694Z,41.63
2023-02-20T12:13:07.778Z,41.58
2023-02-20T12:14:11.896Z,41.54
2023-02-20T12:15:16.046Z,41.5
2023-02-20T12:16:20.405Z,41.42
2023-02-20T12:17:26.850Z,41.47
2023-02-20T12:18:30.953Z,41.45
2023-02-20T12:19:35.127Z,41.48
2023-02-20T12:20:39.231Z,41.46
2023-02-20T12:21:43.413Z,41.49
2023-02-20T12:22:47.497Z,41.57
2023-02-20T12:23:51.610Z,41.52
2023-02-20T12:24:55.712Z,41.52
2023-02-20T12:25:59.813Z,41.51
2023-02-20T12:27:03.952Z,41.58
2023-02-20T12:28:08.054Z,41.5
2023-02-20T12:29:12.169Z,41.63
2023-02-20T12:30:16.437Z,41.55
2023-02-20T12:31:20.839Z,41.51
2023-02-20T12:32:25.030Z,41.55
2023-02-20T12:33:29.137Z,41.49
2023-02-20T12:34:33.238Z,41.4
2023-02-20T12:35:37.385Z,41.41
2023-02-20T12:36:41.488Z,41.41
2023-02-20T12:37:45.589Z,41.38
2023-02-20T12:38:49.678Z,41.38
2023-02-20T12:39:53.761Z,41.4
2023-02-20T12:40:57.843Z,41.4
2023-02-20T12:42:01.975Z,41.43
2023-02-20T12:43:06.112Z,41.45
2023-02-20T12:44:15.529Z,41.45
2023-02-20T12:45:19.628Z,41.45
2023-02-20T12:46:23.950Z,41.46
2023-02-20T12:47:28.071Z,41.46
2023-02-20T12:48:32.172Z,41.55
2023-02-20T12:49:36.287Z,41.54
2023-02-20T12:50:40.407Z,41.57
2023-02-20T12:51:44.524Z,41.56
2023-02-20T12:52:48.645Z,41.61
2023-02-20T12:53:52.745Z,41.54
2023-02-20T12:54:57.024Z,41.5
2023-02-20T12:56:01.249Z,41.44
2023-02-20T12:57:05.373Z,41.38
2023-02-20T12:58:09.604Z,41.28
2023-02-20T12:59:13.750Z,41.25
2023-02-20T13:00:17.862Z,41.24
2023-02-20T13:01:41.305Z,41.25
2023-02-20T13:02:45.509Z,41.24
2023-02-20T13:03:49.703Z,41.23
2023-02-20T13:04:53.814Z,41.23
2023-02-20T13:05:57.929Z,41.26
2023-02-20T13:07:02.061Z,41.25
2023-02-20T13:08:06.164Z,41.34
2023-02-20T13:09:10.263Z,41.37
2023-02-20T13:10:14.396Z,41.38
2023-02-20T13:11:18.487Z,41.41
2023-02-20T13:12:22.580Z,41.44
2023-02-20T13:13:26.775Z,41.41
2023-02-20T13:14:30.888Z,41.43
2023-02-20T13:15:35.014Z,41.43
2023-02-20T13:16:39.341Z,41.45
2023-02-20T13:17:43.492Z,41.5
2023-02-20T13:18:47.615Z,41.5
2023-02-20T13:19:51.706Z,41.53
2023-02-20T13:20:56.018Z,41.58
2023-02-20T13:22:00.195Z,41.62
2023-02-20T13:23:04.329Z,41.56
2023-02-20T13:24:08.451Z,41.53
2023-02-20T13:25:12.611Z,41.53
2023-02-20T13:26:16.929Z,41.51
2023-02-20T13:27:21.065Z,41.54
2023-02-20T13:28:25.278Z,41.5
2023-02-20T13:29:29.356Z,41.43
2023-02-20T13:30:33.628Z,41.38
2023-02-20T13:31:37.895Z,41.33
2023-02-20T13:32:42.124Z,41.24
2023-02-20T13:33:46.249Z,41.24
2023-02-20T13:34:50.513Z,41.28
2023-02-20T13:35:54.621Z,41.25
2023-02-20T13:36:58.749Z,41.26
2023-02-20T13:38:02.849Z,41.28
2023-02-20T13:39:06.974Z,41.32
2023-02-20T13:40:11.172Z,41.34
2023-02-20T13:41:15.296Z,41.39
2023-02-20T13:42:19.388Z,41.38
2023-02-20T13:43:23.593Z,41.38
2023-02-20T13:44:27.705Z,41.38
2023-02-20T13:45:31.975Z,41.38
2023-02-20T13:46:36.098Z,41.42
2023-02-20T13:47:40.538Z,41.44
2023-02-20T13:48:44.658Z,41.48
2023-02-20T13:49:48.766Z,41.49
2023-02-20T13:50:52.915Z,41.53